createdAt,value
2016-09-28T00:00:38.422Z,0
2016-09-28T00:02:53.860Z,0
2016-09-28T00:03:38.293Z,0
2016-09-28T00:05:52.693Z,0
2016-09-28T00:06:38.232Z,0
2016-09-28T00:07:37.774Z,0
2016-09-28T00:08:37.766Z,0
2016-09-28T00:09:37.754Z,0
2016-09-28T00:10:37.749Z,0
2016-09-28T00:11:37.746Z,0
2016-09-28T00:12:37.743Z,0
2016-09-28T00:13:37.733Z,0
2016-09-28T00:14:37.717Z,0
2016-09-28T00:15:37.719Z,0
2016-09-28T00:16:37.710Z,0
2016-09-28T00:17:37.696Z,0
2016-09-28T00:18:38.001Z,0
2016-09-28T00:19:37.695Z,0
2016-09-28T00:20:37.695Z,0
2016-09-28T00:21:37.686Z,0
2016-09-28T00:22:37.686Z,0
2016-09-28T00:23:37.675Z,0
2016-09-28T00:24:37.661Z,0
2016-09-28T00:25:37.656Z,0
2016-09-28T00:26:37.649Z,0
2016-09-28T00:27:37.645Z,0
2016-09-28T00:28:37.653Z,0
2016-09-28T00:29:37.633Z,0
2016-09-28T00:30:37.630Z,0
2016-09-28T00:31:37.625Z,0
2016-09-28T00:32:37.619Z,0
2016-09-28T00:33:37.608Z,0
2016-09-28T00:34:37.851Z,0
2016-09-28T00:35:37.595Z,0
2016-09-28T00:36:37.584Z,0
2016-09-28T00:37:37.593Z,0
2016-09-28T00:38:37.576Z,0
2016-09-28T00:39:37.818Z,0
2016-09-28T00:40:37.582Z,0
2016-09-28T00:41:37.546Z,0
2016-09-28T00:42:37.546Z,0
2016-09-28T00:43:37.540Z,0
2016-09-28T00:44:37.526Z,0
2016-09-28T00:45:37.527Z,0
2016-09-28T00:46:37.523Z,0
2016-09-28T00:47:37.521Z,0
2016-09-28T00:48:37.521Z,0
2016-09-28T00:49:37.496Z,0
2016-09-28T00:50:37.497Z,0
2016-09-28T00:51:37.487Z,0
2016-09-28T00:52:37.496Z,0
2016-09-28T00:53:37.481Z,0
2016-09-28T00:54:37.476Z,0
2016-09-28T00:55:37.465Z,0
2016-09-28T00:56:37.460Z,0
2016-09-28T00:57:37.458Z,0
2016-09-28T00:58:37.459Z,0
2016-09-28T00:59:37.454Z,0
2016-09-28T01:00:37.433Z,0
2016-09-28T01:01:37.425Z,0
2016-09-28T01:02:37.424Z,0
2016-09-28T01:04:40.838Z,0
2016-09-28T01:05:38.083Z,0
2016-09-28T01:06:38.470Z,0
2016-09-28T01:07:37.687Z,0
2016-09-28T01:08:38.602Z,0
2016-09-28T01:09:37.380Z,0
2016-09-28T01:10:37.364Z,0
2016-09-28T01:11:53.042Z,0
2016-09-28T01:12:40.553Z,0
2016-09-28T01:13:39.199Z,0
2016-09-28T01:14:40.353Z,0
2016-09-28T01:15:39.634Z,0
2016-09-28T01:16:37.378Z,0
2016-09-28T01:17:37.995Z,0
2016-09-28T01:18:37.311Z,0
2016-09-28T01:19:37.312Z,0
2016-09-28T01:20:52.315Z,0
2016-09-28T01:22:52.255Z,0
2016-09-28T01:23:52.843Z,0
2016-09-28T01:24:38.041Z,0
2016-09-28T01:25:37.272Z,0
2016-09-28T01:26:37.264Z,0
2016-09-28T01:27:37.252Z,0
2016-09-28T01:28:37.254Z,0
2016-09-28T01:29:37.544Z,0
2016-09-28T01:30:37.232Z,0
2016-09-28T01:31:37.231Z,0
2016-09-28T01:32:37.221Z,0
2016-09-28T01:33:37.212Z,0
2016-09-28T01:34:37.460Z,0
2016-09-28T01:35:37.202Z,0
2016-09-28T01:36:37.200Z,0
2016-09-28T01:37:37.197Z,0
2016-09-28T01:38:37.187Z,0
2016-09-28T01:39:37.426Z,0
2016-09-28T01:40:37.182Z,0
2016-09-28T01:41:37.174Z,0
2016-09-28T01:42:37.154Z,0
2016-09-28T01:43:37.166Z,0
2016-09-28T01:44:37.159Z,0
2016-09-28T01:45:37.132Z,0
2016-09-28T01:46:37.134Z,0
2016-09-28T01:47:37.117Z,0
2016-09-28T01:48:37.117Z,0
2016-09-28T01:49:37.108Z,0
2016-09-28T01:50:37.109Z,0
2016-09-28T01:51:37.114Z,0
2016-09-28T01:52:37.118Z,0
2016-09-28T01:53:37.098Z,0
2016-09-28T01:54:37.079Z,0
2016-09-28T01:55:37.079Z,0
2016-09-28T01:56:37.068Z,0
2016-09-28T01:57:37.063Z,0
2016-09-28T01:58:37.051Z,0
2016-09-28T01:59:37.042Z,0
2016-09-28T02:00:37.036Z,0
2016-09-28T02:01:37.029Z,0
2016-09-28T02:02:37.034Z,0
2016-09-28T02:03:37.020Z,0
2016-09-28T02:04:37.003Z,0
2016-09-28T02:05:37.003Z,0
2016-09-28T02:06:36.998Z,0
2016-09-28T02:07:36.987Z,0
2016-09-28T02:08:36.981Z,0
2016-09-28T02:09:36.977Z,0
2016-09-28T02:10:36.975Z,0
2016-09-28T02:11:36.953Z,0
2016-09-28T02:12:36.953Z,0
2016-09-28T02:13:36.966Z,0
2016-09-28T02:14:36.946Z,0
2016-09-28T02:15:36.938Z,0
2016-09-28T02:16:36.924Z,0
2016-09-28T02:17:36.921Z,0
2016-09-28T02:18:36.914Z,0
2016-09-28T02:19:36.904Z,0
2016-09-28T02:20:36.894Z,0
2016-09-28T02:21:38.636Z,0
2016-09-28T02:22:39.634Z,0
2016-09-28T02:23:40.542Z,0
2016-09-28T02:24:37.963Z,0
2016-09-28T02:25:37.445Z,0
2016-09-28T02:26:36.854Z,0
2016-09-28T02:27:36.926Z,0
2016-09-28T02:28:36.958Z,0
2016-09-28T02:30:08.067Z,0
2016-09-28T02:31:40.111Z,0
2016-09-28T02:32:39.791Z,0
2016-09-28T02:33:38.905Z,0
2016-09-28T02:34:38.484Z,0
2016-09-28T02:35:37.746Z,0
2016-09-28T02:36:37.095Z,0
2016-09-28T02:37:36.782Z,0
2016-09-28T02:39:51.692Z,0
2016-09-28T02:40:37.166Z,0
2016-09-28T02:41:51.670Z,0
2016-09-28T02:42:37.699Z,0
2016-09-28T02:43:36.749Z,0
2016-09-28T02:44:36.986Z,0
2016-09-28T02:45:36.847Z,0
2016-09-28T02:46:36.726Z,0
2016-09-28T02:47:36.718Z,0
2016-09-28T02:48:36.703Z,0
2016-09-28T02:49:36.702Z,0
2016-09-28T02:50:36.698Z,0
2016-09-28T02:51:36.686Z,0
2016-09-28T02:52:36.692Z,0
2016-09-28T02:53:36.679Z,0
2016-09-28T02:54:36.676Z,0
2016-09-28T02:55:36.652Z,0
2016-09-28T02:56:36.651Z,0
2016-09-28T02:57:36.649Z,0
2016-09-28T02:58:36.636Z,0
2016-09-28T02:59:36.639Z,0
2016-09-28T03:00:36.638Z,0
2016-09-28T03:01:36.617Z,0
2016-09-28T03:02:36.615Z,0
2016-09-28T03:03:36.611Z,0
2016-09-28T03:04:36.602Z,0
2016-09-28T03:05:36.597Z,0
2016-09-28T03:06:36.602Z,0
2016-09-28T03:07:36.579Z,0
2016-09-28T03:08:36.584Z,0
2016-09-28T03:09:36.570Z,0
2016-09-28T03:10:36.555Z,0
2016-09-28T03:11:36.551Z,0
2016-09-28T03:12:36.545Z,0
2016-09-28T03:13:36.530Z,0
2016-09-28T03:14:36.547Z,0
2016-09-28T03:15:36.533Z,0
2016-09-28T03:16:36.513Z,0
2016-09-28T03:17:36.510Z,0
2016-09-28T03:18:36.501Z,0
2016-09-28T03:19:36.496Z,0
2016-09-28T03:20:36.489Z,0
2016-09-28T03:21:36.489Z,0
2016-09-28T03:22:36.477Z,0
2016-09-28T03:23:36.469Z,0
2016-09-28T03:24:36.469Z,0
2016-09-28T03:25:36.452Z,0
2016-09-28T03:26:36.448Z,0
2016-09-28T03:27:36.452Z,0
2016-09-28T03:28:36.444Z,0
2016-09-28T03:29:36.434Z,0
2016-09-28T03:30:36.422Z,0
2016-09-28T03:31:36.717Z,0
2016-09-28T03:32:36.419Z,0
2016-09-28T03:33:36.402Z,0
2016-09-28T03:34:36.392Z,0
2016-09-28T03:35:36.397Z,0
2016-09-28T03:36:36.385Z,0
2016-09-28T03:37:36.377Z,0
2016-09-28T03:38:36.380Z,0
2016-09-28T03:40:37.982Z,0
2016-09-28T03:41:39.114Z,0
2016-09-28T03:42:36.859Z,0
2016-09-28T03:43:36.636Z,0
2016-09-28T03:44:36.321Z,0
2016-09-28T03:45:36.694Z,0
2016-09-28T03:46:36.313Z,0
2016-09-28T03:47:53.172Z,0
2016-09-28T03:48:40.658Z,0
2016-09-28T03:49:38.389Z,0
2016-09-28T03:50:37.776Z,0
2016-09-28T03:51:38.421Z,0
2016-09-28T03:52:37.765Z,0
2016-09-28T03:53:37.256Z,0
2016-09-28T03:54:36.266Z,0
2016-09-28T03:55:36.249Z,0
2016-09-28T03:56:36.734Z,0
2016-09-28T03:57:36.482Z,0
2016-09-28T03:58:37.133Z,0
2016-09-28T03:59:36.275Z,0
2016-09-28T04:00:37.214Z,0
2016-09-28T04:01:36.406Z,0
2016-09-28T04:02:36.202Z,0
2016-09-28T04:03:36.197Z,0
2016-09-28T04:04:36.190Z,0
2016-09-28T04:05:36.542Z,0
2016-09-28T04:06:36.481Z,0
2016-09-28T04:07:36.172Z,0
2016-09-28T04:08:36.154Z,0
2016-09-28T04:09:36.157Z,0
2016-09-28T04:10:36.397Z,0
2016-09-28T04:11:36.148Z,0
2016-09-28T04:12:36.137Z,0
2016-09-28T04:13:36.127Z,0
2016-09-28T04:14:36.115Z,0
2016-09-28T04:15:36.112Z,0
2016-09-28T04:16:36.355Z,0
2016-09-28T04:17:36.113Z,0
2016-09-28T04:18:36.084Z,0
2016-09-28T04:19:36.085Z,0
2016-09-28T04:20:36.077Z,0
2016-09-28T04:21:36.315Z,0
2016-09-28T04:22:36.063Z,0
2016-09-28T04:23:36.068Z,0
2016-09-28T04:24:36.048Z,0
2016-09-28T04:25:36.041Z,0
2016-09-28T04:26:36.281Z,0
2016-09-28T04:27:36.039Z,0
2016-09-28T04:28:36.021Z,0
2016-09-28T04:29:36.018Z,0
2016-09-28T04:30:36.009Z,0
2016-09-28T04:31:36.298Z,0
2016-09-28T04:32:35.988Z,0
2016-09-28T04:33:35.978Z,0
2016-09-28T04:34:35.980Z,0
2016-09-28T04:35:35.973Z,0
2016-09-28T04:36:35.960Z,0
2016-09-28T04:37:35.953Z,0
2016-09-28T04:38:35.948Z,0
2016-09-28T04:39:35.941Z,0
2016-09-28T04:40:35.933Z,0
2016-09-28T04:41:35.934Z,0
2016-09-28T04:42:35.926Z,0
2016-09-28T04:43:35.912Z,0
2016-09-28T04:44:35.912Z,0
2016-09-28T04:45:35.910Z,0
2016-09-28T04:46:35.896Z,0
2016-09-28T04:47:35.889Z,0
2016-09-28T04:48:36.192Z,0
2016-09-28T04:49:35.883Z,0
2016-09-28T04:50:35.876Z,0
2016-09-28T04:51:35.868Z,0
2016-09-28T04:52:35.862Z,0
2016-09-28T04:53:35.857Z,5
2016-09-28T04:54:35.839Z,5
2016-09-28T04:55:35.834Z,5
2016-09-28T04:56:35.835Z,5
2016-09-28T04:57:38.715Z,5
2016-09-28T04:58:38.659Z,10
2016-09-28T04:59:38.227Z,10
2016-09-28T05:00:36.315Z,10
2016-09-28T05:01:36.317Z,10
2016-09-28T05:02:35.799Z,10
2016-09-28T05:03:35.782Z,15
2016-09-28T05:04:35.777Z,15
2016-09-28T05:05:52.289Z,15
2016-09-28T05:06:54.032Z,20
2016-09-28T05:07:37.630Z,20
2016-09-28T05:08:51.421Z,20
2016-09-28T05:09:38.182Z,25
2016-09-28T05:10:35.736Z,25
2016-09-28T05:11:35.728Z,30
2016-09-28T05:12:36.451Z,30
2016-09-28T05:13:35.708Z,35
2016-09-28T05:14:37.160Z,35
2016-09-28T05:15:51.030Z,40
2016-09-28T05:17:37.434Z,40
2016-09-28T05:18:35.682Z,45
2016-09-28T05:19:36.976Z,45
2016-09-28T05:20:35.972Z,45
2016-09-28T05:21:35.866Z,45
2016-09-28T05:22:35.658Z,50
2016-09-28T05:23:35.652Z,55
2016-09-28T05:24:35.645Z,55
2016-09-28T05:25:35.636Z,55
2016-09-28T05:26:35.625Z,55
2016-09-28T05:27:35.626Z,55
2016-09-28T05:28:35.619Z,50
2016-09-28T05:29:35.618Z,50
2016-09-28T05:30:35.611Z,45
2016-09-28T05:31:35.600Z,45
2016-09-28T05:32:35.596Z,45
2016-09-28T05:33:35.586Z,45
2016-09-28T05:34:35.576Z,45
2016-09-28T05:35:35.578Z,45
2016-09-28T05:36:35.560Z,50
2016-09-28T05:37:35.567Z,50
2016-09-28T05:38:35.556Z,55
2016-09-28T05:39:35.550Z,65
2016-09-28T05:40:35.548Z,70
2016-09-28T05:41:35.535Z,70
2016-09-28T05:42:35.529Z,75
2016-09-28T05:43:35.523Z,85
2016-09-28T05:44:35.520Z,90
2016-09-28T05:45:35.521Z,95
2016-09-28T05:46:35.509Z,90
2016-09-28T05:47:35.495Z,80
2016-09-28T05:48:35.495Z,75
2016-09-28T05:49:35.488Z,75
2016-09-28T05:50:35.473Z,75
2016-09-28T05:51:35.481Z,80
2016-09-28T05:52:35.476Z,85
2016-09-28T05:53:35.474Z,90
2016-09-28T05:54:35.470Z,95
2016-09-28T05:55:35.454Z,95
2016-09-28T05:56:35.447Z,100
2016-09-28T05:57:35.447Z,105
2016-09-28T05:58:35.441Z,130
2016-09-28T05:59:35.433Z,190
2016-09-28T06:00:35.428Z,170
2016-09-28T06:01:35.424Z,155
2016-09-28T06:02:35.423Z,130
2016-09-28T06:03:35.437Z,130
2016-09-28T06:04:35.401Z,140
2016-09-28T06:05:35.407Z,145
2016-09-28T06:06:35.500Z,145
2016-09-28T06:07:35.384Z,135
2016-09-28T06:08:35.386Z,130
2016-09-28T06:09:35.389Z,120
2016-09-28T06:10:35.371Z,115
2016-09-28T06:11:35.373Z,110
2016-09-28T06:12:35.375Z,105
2016-09-28T06:13:35.657Z,100
2016-09-28T06:14:35.373Z,100
2016-09-28T06:15:37.598Z,110
2016-09-28T06:16:38.270Z,115
2016-09-28T06:17:38.307Z,125
2016-09-28T06:18:36.784Z,135
2016-09-28T06:19:37.181Z,140
2016-09-28T06:20:35.344Z,145
2016-09-28T06:21:36.002Z,150
2016-09-28T06:22:35.330Z,155
2016-09-28T06:23:51.280Z,155
2016-09-28T06:25:38.447Z,155
2016-09-28T06:27:37.359Z,140
2016-09-28T06:28:37.837Z,135
2016-09-28T06:29:35.641Z,135
2016-09-28T06:30:35.290Z,135
2016-09-28T06:31:35.877Z,135
2016-09-28T06:33:36.643Z,140
2016-09-28T06:34:50.507Z,145
2016-09-28T06:35:50.543Z,150
2016-09-28T06:36:35.975Z,150
2016-09-28T06:37:35.819Z,155
2016-09-28T06:38:35.259Z,160
2016-09-28T06:39:35.410Z,170
2016-09-28T06:40:35.255Z,180
2016-09-28T06:41:35.500Z,180
2016-09-28T06:42:35.242Z,180
2016-09-28T06:43:35.239Z,180
2016-09-28T06:44:35.239Z,180
2016-09-28T06:45:35.243Z,175
2016-09-28T06:46:35.246Z,170
2016-09-28T06:47:35.231Z,170
2016-09-28T06:48:35.225Z,165
2016-09-28T06:49:35.215Z,160
2016-09-28T06:50:35.217Z,155
2016-09-28T06:51:35.213Z,155
2016-09-28T06:52:35.209Z,155
2016-09-28T06:53:35.209Z,155
2016-09-28T06:54:35.196Z,155
2016-09-28T06:55:35.200Z,165
2016-09-28T06:56:35.195Z,170
2016-09-28T06:57:35.199Z,170
2016-09-28T06:58:35.195Z,165
2016-09-28T06:59:35.190Z,160
2016-09-28T07:00:35.183Z,160
2016-09-28T07:01:35.179Z,160
2016-09-28T07:02:35.181Z,165
2016-09-28T07:03:35.169Z,175
2016-09-28T07:04:35.168Z,180
2016-09-28T07:05:35.162Z,180
2016-09-28T07:06:35.157Z,180
2016-09-28T07:07:35.451Z,175
2016-09-28T07:08:35.155Z,175
2016-09-28T07:09:35.150Z,175
2016-09-28T07:10:35.139Z,175
2016-09-28T07:11:35.145Z,180
2016-09-28T07:12:35.135Z,195
2016-09-28T07:13:35.131Z,200
2016-09-28T07:14:35.127Z,205
2016-09-28T07:15:35.128Z,210
2016-09-28T07:16:35.119Z,215
2016-09-28T07:17:35.124Z,220
2016-09-28T07:18:35.123Z,220
2016-09-28T07:19:35.118Z,220
2016-09-28T07:20:35.119Z,215
2016-09-28T07:21:35.130Z,210
2016-09-28T07:22:35.105Z,210
2016-09-28T07:23:35.095Z,215
2016-09-28T07:24:35.115Z,225
2016-09-28T07:25:35.113Z,225
2016-09-28T07:26:35.095Z,220
2016-09-28T07:27:35.085Z,215
2016-09-28T07:28:35.078Z,215
2016-09-28T07:29:35.079Z,215
2016-09-28T07:30:35.080Z,225
2016-09-28T07:31:35.079Z,225
2016-09-28T07:32:35.078Z,230
2016-09-28T07:34:39.402Z,245
2016-09-28T07:35:36.127Z,250
2016-09-28T07:36:37.055Z,265
2016-09-28T07:37:35.726Z,275
2016-09-28T07:38:35.484Z,280
2016-09-28T07:39:35.065Z,285
2016-09-28T07:40:35.345Z,290
2016-09-28T07:43:40.107Z,340
2016-09-28T07:44:36.811Z,355
2016-09-28T07:45:37.932Z,365
2016-09-28T07:46:36.620Z,360
2016-09-28T07:47:36.459Z,340
2016-09-28T07:48:35.032Z,310
2016-09-28T07:49:35.029Z,295
2016-09-28T07:50:50.945Z,295
2016-09-28T07:51:36.488Z,295
2016-09-28T07:53:06.305Z,310
2016-09-28T07:53:50.447Z,310
2016-09-28T07:54:35.824Z,315
2016-09-28T07:55:36.066Z,325
2016-09-28T07:56:35.261Z,345
2016-09-28T07:57:35.018Z,365
2016-09-28T07:58:35.265Z,385
2016-09-28T07:59:35.015Z,410
2016-09-28T08:00:35.008Z,430
2016-09-28T08:01:35.017Z,445
2016-09-28T08:02:35.012Z,440
2016-09-28T08:03:35.251Z,450
2016-09-28T08:04:34.997Z,455
2016-09-28T08:05:35.012Z,480
2016-09-28T08:06:34.997Z,490
2016-09-28T08:07:35.001Z,480
2016-09-28T08:08:35.238Z,475
2016-09-28T08:09:34.991Z,465
2016-09-28T08:10:34.986Z,460
2016-09-28T08:11:34.989Z,455
2016-09-28T08:12:34.995Z,445
2016-09-28T08:13:35.010Z,440
2016-09-28T08:14:34.993Z,435
2016-09-28T08:15:35.011Z,450
2016-09-28T08:16:34.988Z,460
2016-09-28T08:17:34.991Z,470
2016-09-28T08:18:34.987Z,470
2016-09-28T08:19:34.987Z,475
2016-09-28T08:20:34.980Z,480
2016-09-28T08:21:34.984Z,490
2016-09-28T08:22:34.983Z,490
2016-09-28T08:23:34.980Z,495
2016-09-28T08:24:34.975Z,500
2016-09-28T08:25:34.993Z,500
2016-09-28T08:26:34.975Z,500
2016-09-28T08:27:34.984Z,500
2016-09-28T08:28:34.979Z,490
2016-09-28T08:29:34.989Z,485
2016-09-28T08:30:34.979Z,475
2016-09-28T08:31:34.982Z,470
2016-09-28T08:32:34.974Z,475
2016-09-28T08:33:34.982Z,485
2016-09-28T08:34:34.983Z,495
2016-09-28T08:35:35.286Z,505
2016-09-28T08:36:34.978Z,515
2016-09-28T08:37:34.996Z,515
2016-09-28T08:38:34.978Z,520
2016-09-28T08:39:34.988Z,520
2016-09-28T08:40:34.988Z,520
2016-09-28T08:41:34.990Z,520
2016-09-28T08:42:34.986Z,515
2016-09-28T08:43:34.982Z,515
2016-09-28T08:44:34.992Z,510
2016-09-28T08:45:35.283Z,505
2016-09-28T08:46:34.987Z,505
2016-09-28T08:47:34.992Z,510
2016-09-28T08:48:34.993Z,515
2016-09-28T08:49:34.987Z,515
2016-09-28T08:50:34.990Z,510
2016-09-28T08:51:38.474Z,500
2016-09-28T08:53:36.231Z,465
2016-09-28T08:54:35.446Z,455
2016-09-28T08:55:36.458Z,455
2016-09-28T08:56:35.002Z,455
2016-09-28T08:57:34.993Z,450
2016-09-28T08:58:35.306Z,445
2016-09-28T09:00:38.578Z,465
2016-09-28T09:01:51.901Z,475
2016-09-28T09:02:37.081Z,475
2016-09-28T09:03:51.220Z,475
2016-09-28T09:04:35.264Z,480
2016-09-28T09:05:35.339Z,480
2016-09-28T09:06:35.107Z,475
2016-09-28T09:07:35.052Z,460
2016-09-28T09:08:51.401Z,440
2016-09-28T09:09:35.758Z,435
2016-09-28T09:10:50.580Z,400
2016-09-28T09:11:35.265Z,400
2016-09-28T09:12:35.972Z,435
2016-09-28T09:13:36.662Z,460
2016-09-28T09:14:35.208Z,495
2016-09-28T09:15:35.021Z,515
2016-09-28T09:16:35.019Z,525
2016-09-28T09:17:35.034Z,540
2016-09-28T09:18:35.330Z,540
2016-09-28T09:19:35.026Z,540
2016-09-28T09:20:35.028Z,540
2016-09-28T09:21:35.032Z,530
2016-09-28T09:22:35.026Z,530
2016-09-28T09:23:35.028Z,500
2016-09-28T09:24:35.028Z,485
2016-09-28T09:25:35.037Z,480
2016-09-28T09:26:35.043Z,475
2016-09-28T09:27:35.041Z,490
2016-09-28T09:28:35.043Z,505
2016-09-28T09:29:35.061Z,520
2016-09-28T09:30:35.041Z,560
2016-09-28T09:31:35.062Z,570
2016-09-28T09:32:35.050Z,555
2016-09-28T09:33:35.050Z,535
2016-09-28T09:34:35.059Z,525
2016-09-28T09:35:35.052Z,480
2016-09-28T09:36:35.064Z,445
2016-09-28T09:37:35.063Z,405
2016-09-28T09:38:35.065Z,390
2016-09-28T09:39:35.067Z,360
2016-09-28T09:40:35.073Z,355
2016-09-28T09:41:35.065Z,370
2016-09-28T09:42:35.064Z,385
2016-09-28T09:43:35.075Z,505
2016-09-28T09:44:35.071Z,590
2016-09-28T09:45:35.093Z,585
2016-09-28T09:46:35.080Z,595
2016-09-28T09:47:35.099Z,665
2016-09-28T09:48:35.084Z,675
2016-09-28T09:49:35.087Z,690
2016-09-28T09:50:35.092Z,665
2016-09-28T09:51:35.093Z,650
2016-09-28T09:52:35.090Z,660
2016-09-28T09:53:35.103Z,620
2016-09-28T09:54:35.115Z,560
2016-09-28T09:55:35.407Z,500
2016-09-28T09:56:35.101Z,415
2016-09-28T09:57:35.099Z,375
2016-09-28T09:58:35.114Z,330
2016-09-28T09:59:35.116Z,305
2016-09-28T10:00:35.109Z,320
2016-09-28T10:01:35.119Z,345
2016-09-28T10:02:35.125Z,380
2016-09-28T10:03:35.121Z,450
2016-09-28T10:04:35.423Z,480
2016-09-28T10:05:35.152Z,455
2016-09-28T10:06:35.127Z,425
2016-09-28T10:07:35.141Z,445
2016-09-28T10:08:35.147Z,480
2016-09-28T10:09:37.332Z,475
2016-09-28T10:10:36.664Z,405
2016-09-28T10:11:37.650Z,370
2016-09-28T10:12:36.877Z,395
2016-09-28T10:13:35.149Z,380
2016-09-28T10:14:35.774Z,400
2016-09-28T10:15:35.505Z,390
2016-09-28T10:16:35.156Z,390
2016-09-28T10:17:51.080Z,430
2016-09-28T10:19:37.542Z,450
2016-09-28T10:20:51.683Z,510
2016-09-28T10:21:37.817Z,470
2016-09-28T10:22:36.006Z,445
2016-09-28T10:23:36.792Z,385
2016-09-28T10:24:35.482Z,315
2016-09-28T10:25:35.189Z,255
2016-09-28T10:27:06.128Z,245
2016-09-28T10:27:50.409Z,255
2016-09-28T10:29:06.482Z,270
2016-09-28T10:29:35.886Z,265
2016-09-28T10:30:36.154Z,230
2016-09-28T10:31:36.856Z,230
2016-09-28T10:32:35.205Z,245
2016-09-28T10:33:35.210Z,265
2016-09-28T10:34:35.201Z,290
2016-09-28T10:35:35.210Z,285
2016-09-28T10:36:35.220Z,325
2016-09-28T10:37:35.212Z,305
2016-09-28T10:38:35.225Z,335
2016-09-28T10:39:35.220Z,295
2016-09-28T10:40:35.218Z,250
2016-09-28T10:41:35.233Z,235
2016-09-28T10:42:35.225Z,260
2016-09-28T10:43:35.224Z,330
2016-09-28T10:44:35.218Z,330
2016-09-28T10:45:35.222Z,375
2016-09-28T10:46:35.222Z,405
2016-09-28T10:47:35.236Z,370
2016-09-28T10:48:35.247Z,345
2016-09-28T10:49:35.231Z,375
2016-09-28T10:50:35.235Z,390
2016-09-28T10:51:35.235Z,385
2016-09-28T10:52:35.232Z,355
2016-09-28T10:53:35.237Z,355
2016-09-28T10:54:35.244Z,345
2016-09-28T10:55:35.241Z,360
2016-09-28T10:56:35.238Z,350
2016-09-28T10:57:35.240Z,330
2016-09-28T10:58:35.250Z,310
2016-09-28T10:59:35.255Z,265
2016-09-28T11:00:35.256Z,255
2016-09-28T11:01:35.258Z,275
2016-09-28T11:02:35.256Z,295
2016-09-28T11:03:35.262Z,310
2016-09-28T11:04:35.256Z,315
2016-09-28T11:05:35.264Z,295
2016-09-28T11:06:35.263Z,280
2016-09-28T11:07:35.260Z,290
2016-09-28T11:08:35.266Z,310
2016-09-28T11:09:35.266Z,320
2016-09-28T11:10:35.275Z,275
2016-09-28T11:11:35.294Z,290
2016-09-28T11:12:35.268Z,340
2016-09-28T11:13:35.273Z,360
2016-09-28T11:14:35.280Z,300
2016-09-28T11:15:35.276Z,260
2016-09-28T11:16:35.276Z,255
2016-09-28T11:17:35.281Z,265
2016-09-28T11:18:35.276Z,275
2016-09-28T11:19:35.299Z,300
2016-09-28T11:20:35.293Z,300
2016-09-28T11:21:35.282Z,305
2016-09-28T11:22:35.283Z,305
2016-09-28T11:23:35.287Z,285
2016-09-28T11:24:35.290Z,280
2016-09-28T11:25:35.298Z,295
2016-09-28T11:26:35.290Z,290
2016-09-28T11:27:37.445Z,330
2016-09-28T11:29:37.965Z,325
2016-09-28T11:30:37.515Z,320
2016-09-28T11:31:36.830Z,320
2016-09-28T11:32:35.298Z,350
2016-09-28T11:33:35.309Z,390
2016-09-28T11:34:35.300Z,465
2016-09-28T11:36:39.556Z,555
2016-09-28T11:38:50.842Z,640
2016-09-28T11:39:36.794Z,710
2016-09-28T11:40:35.411Z,710
2016-09-28T11:41:36.708Z,675
2016-09-28T11:42:35.618Z,630
2016-09-28T11:43:35.318Z,590
2016-09-28T11:47:36.635Z,485
2016-09-28T11:48:35.429Z,480
2016-09-28T11:49:36.285Z,495
2016-09-28T11:50:35.930Z,495
2016-09-28T11:51:35.343Z,485
2016-09-28T11:52:35.346Z,505
2016-09-28T11:53:35.346Z,520
2016-09-28T11:54:35.356Z,540
2016-09-28T11:55:35.354Z,560
2016-09-28T11:56:35.355Z,560
2016-09-28T11:57:35.354Z,560
2016-09-28T11:58:35.362Z,555
2016-09-28T11:59:35.360Z,555
2016-09-28T12:00:35.368Z,550
2016-09-28T12:01:35.379Z,545
2016-09-28T12:02:35.378Z,550
2016-09-28T12:03:35.593Z,570
2016-09-28T12:04:35.394Z,605
2016-09-28T12:05:35.386Z,625
2016-09-28T12:06:35.395Z,625
2016-09-28T12:07:35.391Z,620
2016-09-28T12:08:35.412Z,605
2016-09-28T12:09:35.404Z,565
2016-09-28T12:10:35.412Z,530
2016-09-28T12:11:35.701Z,495
2016-09-28T12:12:35.423Z,465
2016-09-28T12:13:35.417Z,445
2016-09-28T12:14:35.426Z,435
2016-09-28T12:15:35.431Z,445
2016-09-28T12:16:35.439Z,460
2016-09-28T12:17:35.458Z,465
2016-09-28T12:18:35.448Z,465
2016-09-28T12:19:35.442Z,465
2016-09-28T12:20:35.454Z,465
2016-09-28T12:21:35.466Z,465
2016-09-28T12:22:35.471Z,465
2016-09-28T12:23:35.467Z,465
2016-09-28T12:24:35.471Z,465
2016-09-28T12:25:35.480Z,455
2016-09-28T12:26:35.465Z,445
2016-09-28T12:27:35.797Z,440
2016-09-28T12:28:35.476Z,435
2016-09-28T12:29:35.486Z,435
2016-09-28T12:30:35.486Z,430
2016-09-28T12:31:35.486Z,430
2016-09-28T12:32:35.493Z,430
2016-09-28T12:33:35.502Z,430
2016-09-28T12:34:35.491Z,435
2016-09-28T12:35:35.507Z,430
2016-09-28T12:36:35.514Z,425
2016-09-28T12:37:35.523Z,425
2016-09-28T12:38:35.521Z,425
2016-09-28T12:39:35.528Z,425
2016-09-28T12:40:35.834Z,425
2016-09-28T12:41:35.543Z,430
2016-09-28T12:42:35.536Z,435
2016-09-28T12:43:35.545Z,445
2016-09-28T12:44:35.537Z,445
2016-09-28T12:45:37.628Z,445
2016-09-28T12:46:39.181Z,450
2016-09-28T12:47:37.102Z,450
2016-09-28T12:48:37.026Z,450
2016-09-28T12:49:36.577Z,440
2016-09-28T12:50:35.564Z,425
2016-09-28T12:51:35.566Z,425
2016-09-28T12:52:35.578Z,420
2016-09-28T12:53:51.543Z,415
2016-09-28T12:54:52.111Z,420
2016-09-28T12:56:38.608Z,425
2016-09-28T12:57:36.484Z,430
2016-09-28T12:58:38.176Z,435
2016-09-28T12:59:36.613Z,435
2016-09-28T13:00:36.831Z,435
2016-09-28T13:01:35.627Z,445
2016-09-28T13:02:51.532Z,440
2016-09-28T13:05:36.418Z,450
2016-09-28T13:06:50.642Z,450
2016-09-28T13:07:35.622Z,445
2016-09-28T13:08:35.626Z,440
2016-09-28T13:09:35.875Z,435
2016-09-28T13:10:35.681Z,430
2016-09-28T13:11:35.642Z,400
2016-09-28T13:12:35.653Z,385
2016-09-28T13:13:35.656Z,375
2016-09-28T13:14:35.948Z,375
2016-09-28T13:15:35.655Z,375
2016-09-28T13:16:35.656Z,375
2016-09-28T13:17:35.665Z,385
2016-09-28T13:18:35.657Z,395
2016-09-28T13:19:35.673Z,400
2016-09-28T13:20:35.664Z,395
2016-09-28T13:21:35.683Z,390
2016-09-28T13:22:35.678Z,385
2016-09-28T13:23:35.686Z,385
2016-09-28T13:24:35.680Z,385
2016-09-28T13:25:35.675Z,380
2016-09-28T13:26:35.703Z,380
2016-09-28T13:27:35.688Z,380
2016-09-28T13:28:35.709Z,375
2016-09-28T13:29:35.708Z,370
2016-09-28T13:30:35.697Z,370
2016-09-28T13:31:35.699Z,365
2016-09-28T13:32:35.713Z,360
2016-09-28T13:33:35.706Z,360
2016-09-28T13:34:35.713Z,355
2016-09-28T13:35:35.715Z,355
2016-09-28T13:36:35.720Z,360
2016-09-28T13:37:35.714Z,365
2016-09-28T13:38:35.716Z,360
2016-09-28T13:39:35.722Z,360
2016-09-28T13:40:35.734Z,355
2016-09-28T13:41:35.733Z,350
2016-09-28T13:42:35.736Z,350
2016-09-28T13:43:35.743Z,350
2016-09-28T13:44:35.739Z,355
2016-09-28T13:45:35.744Z,350
2016-09-28T13:46:35.739Z,345
2016-09-28T13:47:35.744Z,345
2016-09-28T13:48:36.044Z,335
2016-09-28T13:49:35.778Z,325
2016-09-28T13:50:35.759Z,325
2016-09-28T13:51:35.776Z,320
2016-09-28T13:52:35.764Z,315
2016-09-28T13:53:35.761Z,310
2016-09-28T13:54:35.772Z,300
2016-09-28T13:55:35.763Z,295
2016-09-28T13:56:35.768Z,295
2016-09-28T13:57:35.764Z,300
2016-09-28T13:58:35.790Z,300
2016-09-28T13:59:35.768Z,310
2016-09-28T14:00:35.777Z,310
2016-09-28T14:01:35.778Z,320
2016-09-28T14:02:35.779Z,325
2016-09-28T14:03:37.306Z,325
2016-09-28T14:04:37.617Z,325
2016-09-28T14:05:39.409Z,325
2016-09-28T14:06:39.182Z,325
2016-09-28T14:07:35.784Z,325
2016-09-28T14:08:36.474Z,325
2016-09-28T14:09:35.801Z,330
2016-09-28T14:10:35.794Z,330
2016-09-28T14:11:37.925Z,335
2016-09-28T14:12:36.085Z,340
2016-09-28T14:13:38.154Z,340
2016-09-28T14:14:39.745Z,335
2016-09-28T14:16:36.332Z,320
2016-09-28T14:17:37.154Z,315
2016-09-28T14:18:35.816Z,310
2016-09-28T14:19:35.915Z,300
2016-09-28T14:21:36.971Z,295
2016-09-28T14:23:06.902Z,290
2016-09-28T14:24:05.647Z,290
2016-09-28T14:24:50.736Z,290
2016-09-28T14:25:36.121Z,290
2016-09-28T14:26:36.278Z,290
2016-09-28T14:27:35.872Z,290
2016-09-28T14:28:35.824Z,285
2016-09-28T14:29:35.830Z,285
2016-09-28T14:30:35.826Z,280
2016-09-28T14:31:35.828Z,275
2016-09-28T14:32:35.845Z,275
2016-09-28T14:33:35.842Z,270
2016-09-28T14:34:36.130Z,265
2016-09-28T14:35:35.836Z,260
2016-09-28T14:36:35.838Z,255